sensor_id;sensor_type;location;lat;lon;timestamp;P1;durP1;ratioP1;P2;durP2;ratioP2
7661;SDS011;30314;48.184;11.510;2022-09-12T00:01:01;3.87;;;2.40;;
7661;SDS011;30314;48.184;11.510;2022-09-12T00:03:30;2.73;;;2.47;;
7661;SDS011;30314;48.184;11.510;2022-09-12T00:05:58;5.73;;;2.57;;
7661;SDS011;30314;48.184;11.510;2022-09-12T00:08:25;5.47;;;3.40;;
7661;SDS011;30314;48.184;11.510;2022-09-12T00:10:54;7.33;;;2.73;;
7661;SDS011;30314;48.184;11.510;2022-09-12T00:13:22;6.43;;;2.33;;
7661;SDS011;30314;48.184;11.510;2022-09-12T00:15:50;3.10;;;2.53;;
7661;SDS011;30314;48.184;11.510;2022-09-12T00:18:18;5.30;;;3.00;;
7661;SDS011;30314;48.184;11.510;2022-09-12T00:20:45;3.17;;;2.87;;
7661;SDS011;30314;48.184;11.510;2022-09-12T00:23:13;6.10;;;2.93;;
7661;SDS011;30314;48.184;11.510;2022-09-12T00:25:41;3.77;;;2.57;;
7661;SDS011;30314;48.184;11.510;2022-09-12T00:28:11;2.90;;;2.33;;
7661;SDS011;30314;48.184;11.510;2022-09-12T00:30:42;3.47;;;2.03;;
7661;SDS011;30314;48.184;11.510;2022-09-12T00:33:12;4.30;;;2.30;;
7661;SDS011;30314;48.184;11.510;2022-09-12T00:35:41;6.67;;;2.27;;
7661;SDS011;30314;48.184;11.510;2022-09-12T00:38:10;5.67;;;2.20;;
7661;SDS011;30314;48.184;11.510;2022-09-12T00:40:38;3.53;;;2.30;;
7661;SDS011;30314;48.184;11.510;2022-09-12T00:43:08;4.20;;;2.50;;
7661;SDS011;30314;48.184;11.510;2022-09-12T00:45:40;4.57;;;1.80;;
7661;SDS011;30314;48.184;11.510;2022-09-12T00:48:13;2.73;;;2.00;;
7661;SDS011;30314;48.184;11.510;2022-09-12T00:50:48;3.10;;;2.67;;
7661;SDS011;30314;48.184;11.510;2022-09-12T00:53:16;3.43;;;2.20;;
7661;SDS011;30314;48.184;11.510;2022-09-12T00:55:45;3.43;;;2.03;;
7661;SDS011;30314;48.184;11.510;2022-09-12T00:58:18;3.27;;;2.33;;
7661;SDS011;30314;48.184;11.510;2022-09-12T01:00:49;3.60;;;1.97;;
7661;SDS011;30314;48.184;11.510;2022-09-12T01:03:18;9.60;;;2.60;;
7661;SDS011;30314;48.184;11.510;2022-09-12T01:05:50;3.80;;;2.57;;
7661;SDS011;30314;48.184;11.510;2022-09-12T01:08:26;3.23;;;2.40;;
7661;SDS011;30314;48.184;11.510;2022-09-12T01:10:55;8.63;;;3.00;;
7661;SDS011;30314;48.184;11.510;2022-09-12T01:13:25;4.70;;;2.40;;
7661;SDS011;30314;48.184;11.510;2022-09-12T01:15:53;5.10;;;2.57;;
7661;SDS011;30314;48.184;11.510;2022-09-12T01:18:23;3.63;;;2.03;;
7661;SDS011;30314;48.184;11.510;2022-09-12T01:24:01;4.07;;;2.50;;
7661;SDS011;30314;48.184;11.510;2022-09-12T01:26:56;3.70;;;2.10;;
7661;SDS011;30314;48.184;11.510;2022-09-12T01:30:04;2.70;;;2.10;;
7661;SDS011;30314;48.184;11.510;2022-09-12T01:33:09;8.03;;;2.87;;
7661;SDS011;30314;48.184;11.510;2022-09-12T01:35:50;4.07;;;2.90;;
7661;SDS011;30314;48.184;11.510;2022-09-12T01:38:29;3.70;;;2.40;;
7661;SDS011;30314;48.184;11.510;2022-09-12T01:41:05;3.67;;;2.23;;
7661;SDS011;30314;48.184;11.510;2022-09-12T01:43:41;2.47;;;1.77;;
7661;SDS011;30314;48.184;11.510;2022-09-12T01:46:14;7.30;;;2.00;;
7661;SDS011;30314;48.184;11.510;2022-09-12T01:48:48;2.17;;;1.73;;
7661;SDS011;30314;48.184;11.510;2022-09-12T01:51:22;4.27;;;2.47;;
7661;SDS011;30314;48.184;11.510;2022-09-12T01:53:57;5.83;;;2.17;;
7661;SDS011;30314;48.184;11.510;2022-09-12T01:56:30;2.43;;;2.07;;
7661;SDS011;30314;48.184;11.510;2022-09-12T01:59:02;2.90;;;2.23;;
7661;SDS011;30314;48.184;11.510;2022-09-12T02:01:39;1.97;;;1.70;;
7661;SDS011;30314;48.184;11.510;2022-09-12T02:04:15;2.60;;;2.07;;
7661;SDS011;30314;48.184;11.510;2022-09-12T02:06:48;3.27;;;1.80;;
7661;SDS011;30314;48.184;11.510;2022-09-12T02:09:19;3.13;;;2.03;;
7661;SDS011;30314;48.184;11.510;2022-09-12T02:11:51;2.53;;;1.70;;
7661;SDS011;30314;48.184;11.510;2022-09-12T02:14:24;3.33;;;2.30;;
7661;SDS011;30314;48.184;11.510;2022-09-12T02:16:55;3.57;;;2.00;;
7661;SDS011;30314;48.184;11.510;2022-09-12T02:19:31;12.33;;;1.93;;
7661;SDS011;30314;48.184;11.510;2022-09-12T02:22:03;3.37;;;2.00;;
7661;SDS011;30314;48.184;11.510;2022-09-12T02:24:32;3.63;;;2.17;;
7661;SDS011;30314;48.184;11.510;2022-09-12T02:27:05;2.40;;;1.87;;
7661;SDS011;30314;48.184;11.510;2022-09-12T02:29:37;2.67;;;2.07;;
7661;SDS011;30314;48.184;11.510;2022-09-12T02:32:07;5.00;;;2.10;;
7661;SDS011;30314;48.184;11.510;2022-09-12T02:34:48;2.57;;;1.27;;
7661;SDS011;30314;48.184;11.510;2022-09-12T02:37:28;2.70;;;1.77;;
7661;SDS011;30314;48.184;11.510;2022-09-12T02:40:05;3.90;;;2.37;;
7661;SDS011;30314;48.184;11.510;2022-09-12T02:42:34;1.83;;;1.60;;
7661;SDS011;30314;48.184;11.510;2022-09-12T02:45:02;4.90;;;2.00;;
7661;SDS011;30314;48.184;11.510;2022-09-12T02:47:31;3.40;;;2.20;;
7661;SDS011;30314;48.184;11.510;2022-09-12T02:50:05;3.10;;;1.70;;
7661;SDS011;30314;48.184;11.510;2022-09-12T02:52:35;3.87;;;1.83;;
7661;SDS011;30314;48.184;11.510;2022-09-12T02:55:03;2.20;;;1.50;;
7661;SDS011;30314;48.184;11.510;2022-09-12T02:57:32;4.03;;;1.93;;
7661;SDS011;30314;48.184;11.510;2022-09-12T03:00:00;1.70;;;1.57;;
7661;SDS011;30314;48.184;11.510;2022-09-12T03:02:31;6.40;;;1.50;;
7661;SDS011;30314;48.184;11.510;2022-09-12T03:05:15;3.23;;;1.77;;
7661;SDS011;30314;48.184;11.510;2022-09-12T03:08:00;2.90;;;1.77;;
7661;SDS011;30314;48.184;11.510;2022-09-12T03:11:00;2.00;;;1.70;;
7661;SDS011;30314;48.184;11.510;2022-09-12T03:13:39;2.83;;;2.53;;
7661;SDS011;30314;48.184;11.510;2022-09-12T03:16:16;2.97;;;2.00;;
7661;SDS011;30314;48.184;11.510;2022-09-12T03:18:55;2.00;;;1.77;;
7661;SDS011;30314;48.184;11.510;2022-09-12T03:21:32;5.83;;;1.70;;
7661;SDS011;30314;48.184;11.510;2022-09-12T03:24:11;3.50;;;1.80;;
7661;SDS011;30314;48.184;11.510;2022-09-12T03:26:46;2.57;;;1.83;;
7661;SDS011;30314;48.184;11.510;2022-09-12T03:29:16;2.60;;;1.60;;
7661;SDS011;30314;48.184;11.510;2022-09-12T03:31:47;2.00;;;1.50;;
7661;SDS011;30314;48.184;11.510;2022-09-12T03:34:17;1.43;;;1.03;;
7661;SDS011;30314;48.184;11.510;2022-09-12T03:36:46;3.53;;;1.83;;
7661;SDS011;30314;48.184;11.510;2022-09-12T03:39:14;2.67;;;1.67;;
7661;SDS011;30314;48.184;11.510;2022-09-12T03:41:43;3.63;;;1.90;;
7661;SDS011;30314;48.184;11.510;2022-09-12T03:44:11;3.87;;;1.97;;
7661;SDS011;30314;48.184;11.510;2022-09-12T03:46:38;3.20;;;1.90;;
7661;SDS011;30314;48.184;11.510;2022-09-12T03:49:06;3.83;;;1.77;;
7661;SDS011;30314;48.184;11.510;2022-09-12T03:51:34;3.20;;;1.47;;
7661;SDS011;30314;48.184;11.510;2022-09-12T03:54:03;2.53;;;1.80;;
7661;SDS011;30314;48.184;11.510;2022-09-12T03:56:31;2.07;;;1.67;;
7661;SDS011;30314;48.184;11.510;2022-09-12T03:58:58;6.57;;;2.00;;
7661;SDS011;30314;48.184;11.510;2022-09-12T04:01:26;3.60;;;1.57;;
7661;SDS011;30314;48.184;11.510;2022-09-12T04:03:59;3.20;;;2.10;;
7661;SDS011;30314;48.184;11.510;2022-09-12T04:06:27;1.73;;;1.53;;
7661;SDS011;30314;48.184;11.510;2022-09-12T04:08:56;4.93;;;2.30;;
7661;SDS011;30314;48.184;11.510;2022-09-12T04:11:25;2.80;;;1.63;;
7661;SDS011;30314;48.184;11.510;2022-09-12T04:13:53;3.00;;;2.00;;
7661;SDS011;30314;48.184;11.510;2022-09-12T04:16:21;4.20;;;2.03;;
7661;SDS011;30314;48.184;11.510;2022-09-12T04:18:51;5.03;;;1.80;;
7661;SDS011;30314;48.184;11.510;2022-09-12T04:21:21;1.93;;;1.60;;
7661;SDS011;30314;48.184;11.510;2022-09-12T04:23:49;2.23;;;1.60;;
7661;SDS011;30314;48.184;11.510;2022-09-12T04:26:17;2.50;;;2.20;;
7661;SDS011;30314;48.184;11.510;2022-09-12T04:28:47;3.57;;;2.20;;
7661;SDS011;30314;48.184;11.510;2022-09-12T04:31:20;3.97;;;1.73;;
7661;SDS011;30314;48.184;11.510;2022-09-12T04:33:51;2.30;;;1.60;;
7661;SDS011;30314;48.184;11.510;2022-09-12T04:36:20;3.00;;;2.03;;
7661;SDS011;30314;48.184;11.510;2022-09-12T04:38:48;2.57;;;1.83;;
7661;SDS011;30314;48.184;11.510;2022-09-12T04:41:17;2.30;;;1.60;;
7661;SDS011;30314;48.184;11.510;2022-09-12T04:43:50;3.70;;;1.47;;
7661;SDS011;30314;48.184;11.510;2022-09-12T04:46:19;2.57;;;1.93;;
7661;SDS011;30314;48.184;11.510;2022-09-12T04:48:47;12.00;;;2.53;;
7661;SDS011;30314;48.184;11.510;2022-09-12T04:51:22;3.23;;;2.30;;
7661;SDS011;30314;48.184;11.510;2022-09-12T04:53:53;7.93;;;2.10;;
7661;SDS011;30314;48.184;11.510;2022-09-12T04:56:23;4.47;;;1.90;;
7661;SDS011;30314;48.184;11.510;2022-09-12T04:58:53;3.13;;;2.03;;
7661;SDS011;30314;48.184;11.510;2022-09-12T05:01:23;3.27;;;2.20;;
7661;SDS011;30314;48.184;11.510;2022-09-12T05:03:52;4.10;;;2.30;;
7661;SDS011;30314;48.184;11.510;2022-09-12T05:06:21;8.60;;;2.33;;
7661;SDS011;30314;48.184;11.510;2022-09-12T05:08:50;5.57;;;2.30;;
7661;SDS011;30314;48.184;11.510;2022-09-12T05:11:20;3.13;;;2.57;;
7661;SDS011;30314;48.184;11.510;2022-09-12T05:13:54;7.93;;;2.63;;
7661;SDS011;30314;48.184;11.510;2022-09-12T05:16:25;4.30;;;2.60;;
7661;SDS011;30314;48.184;11.510;2022-09-12T05:18:54;3.60;;;2.30;;
7661;SDS011;30314;48.184;11.510;2022-09-12T05:21:22;3.63;;;2.50;;
7661;SDS011;30314;48.184;11.510;2022-09-12T05:23:50;2.97;;;2.00;;
7661;SDS011;30314;48.184;11.510;2022-09-12T05:26:18;9.83;;;2.77;;
7661;SDS011;30314;48.184;11.510;2022-09-12T05:28:47;2.90;;;2.20;;
7661;SDS011;30314;48.184;11.510;2022-09-12T05:31:18;3.90;;;2.40;;
7661;SDS011;30314;48.184;11.510;2022-09-12T05:36:40;6.37;;;2.20;;
7661;SDS011;30314;48.184;11.510;2022-09-12T05:39:07;2.50;;;1.90;;
7661;SDS011;30314;48.184;11.510;2022-09-12T05:41:35;3.50;;;2.17;;
7661;SDS011;30314;48.184;11.510;2022-09-12T05:44:03;5.17;;;3.00;;
7661;SDS011;30314;48.184;11.510;2022-09-12T05:46:36;7.13;;;2.73;;
7661;SDS011;30314;48.184;11.510;2022-09-12T05:49:06;4.03;;;2.63;;
7661;SDS011;30314;48.184;11.510;2022-09-12T05:51:35;3.97;;;2.30;;
7661;SDS011;30314;48.184;11.510;2022-09-12T05:54:05;5.50;;;3.40;;
7661;SDS011;30314;48.184;11.510;2022-09-12T05:56:36;3.90;;;2.50;;
7661;SDS011;30314;48.184;11.510;2022-09-12T05:59:05;4.97;;;2.80;;
7661;SDS011;30314;48.184;11.510;2022-09-12T06:01:38;3.47;;;2.20;;
7661;SDS011;30314;48.184;11.510;2022-09-12T06:04:07;4.10;;;2.70;;
7661;SDS011;30314;48.184;11.510;2022-09-12T06:06:35;3.30;;;2.10;;
7661;SDS011;30314;48.184;11.510;2022-09-12T06:09:06;4.43;;;3.10;;
7661;SDS011;30314;48.184;11.510;2022-09-12T06:11:35;4.13;;;2.50;;
7661;SDS011;30314;48.184;11.510;2022-09-12T06:14:06;2.50;;;2.10;;
7661;SDS011;30314;48.184;11.510;2022-09-12T06:16:35;3.07;;;2.40;;
7661;SDS011;30314;48.184;11.510;2022-09-12T06:19:05;5.33;;;2.13;;
7661;SDS011;30314;48.184;11.510;2022-09-12T06:21:35;6.37;;;2.33;;
7661;SDS011;30314;48.184;11.510;2022-09-12T06:24:05;2.97;;;2.67;;
7661;SDS011;30314;48.184;11.510;2022-09-12T06:26:33;4.73;;;2.20;;
7661;SDS011;30314;48.184;11.510;2022-09-12T06:29:01;2.83;;;2.17;;
7661;SDS011;30314;48.184;11.510;2022-09-12T06:31:30;2.40;;;1.93;;
7661;SDS011;30314;48.184;11.510;2022-09-12T06:34:05;2.97;;;2.37;;
7661;SDS011;30314;48.184;11.510;2022-09-12T06:36:35;2.37;;;1.87;;
7661;SDS011;30314;48.184;11.510;2022-09-12T06:39:05;3.27;;;2.60;;
7661;SDS011;30314;48.184;11.510;2022-09-12T06:41:34;4.00;;;2.80;;
7661;SDS011;30314;48.184;11.510;2022-09-12T06:44:08;5.47;;;3.33;;
7661;SDS011;30314;48.184;11.510;2022-09-12T06:46:38;4.60;;;3.27;;
7661;SDS011;30314;48.184;11.510;2022-09-12T06:49:07;4.97;;;3.27;;
7661;SDS011;30314;48.184;11.510;2022-09-12T06:51:35;3.20;;;2.40;;
7661;SDS011;30314;48.184;11.510;2022-09-12T06:54:03;3.00;;;2.20;;
7661;SDS011;30314;48.184;11.510;2022-09-12T06:56:31;3.17;;;2.70;;
7661;SDS011;30314;48.184;11.510;2022-09-12T06:58:59;2.97;;;2.30;;
7661;SDS011;30314;48.184;11.510;2022-09-12T07:01:28;4.83;;;2.70;;
7661;SDS011;30314;48.184;11.510;2022-09-12T07:03:58;3.30;;;2.57;;
7661;SDS011;30314;48.184;11.510;2022-09-12T07:06:29;4.03;;;3.00;;
7661;SDS011;30314;48.184;11.510;2022-09-12T07:09:02;3.10;;;2.33;;
7661;SDS011;30314;48.184;11.510;2022-09-12T07:11:32;3.50;;;2.37;;
7661;SDS011;30314;48.184;11.510;2022-09-12T07:14:09;6.43;;;3.17;;
7661;SDS011;30314;48.184;11.510;2022-09-12T07:16:38;5.20;;;2.93;;
7661;SDS011;30314;48.184;11.510;2022-09-12T07:19:06;2.97;;;2.40;;
7661;SDS011;30314;48.184;11.510;2022-09-12T07:21:36;5.00;;;3.17;;
7661;SDS011;30314;48.184;11.510;2022-09-12T07:24:07;4.80;;;2.90;;
7661;SDS011;30314;48.184;11.510;2022-09-12T07:26:36;3.50;;;2.50;;
7661;SDS011;30314;48.184;11.510;2022-09-12T07:29:05;4.90;;;2.80;;
7661;SDS011;30314;48.184;11.510;2022-09-12T07:31:58;5.57;;;3.00;;
7661;SDS011;30314;48.184;11.510;2022-09-12T07:34:26;5.30;;;2.33;;
7661;SDS011;30314;48.184;11.510;2022-09-12T07:36:55;3.33;;;2.30;;
7661;SDS011;30314;48.184;11.510;2022-09-12T07:39:25;6.70;;;2.57;;
7661;SDS011;30314;48.184;11.510;2022-09-12T07:41:53;3.33;;;2.10;;
7661;SDS011;30314;48.184;11.510;2022-09-12T07:44:21;6.73;;;2.90;;
7661;SDS011;30314;48.184;11.510;2022-09-12T07:46:49;5.20;;;2.60;;
7661;SDS011;30314;48.184;11.510;2022-09-12T07:49:17;5.70;;;2.83;;
7661;SDS011;30314;48.184;11.510;2022-09-12T07:51:45;4.37;;;2.40;;
7661;SDS011;30314;48.184;11.510;2022-09-12T07:54:14;6.17;;;3.40;;
7661;SDS011;30314;48.184;11.510;2022-09-12T07:56:43;3.33;;;2.30;;
7661;SDS011;30314;48.184;11.510;2022-09-12T07:59:11;4.50;;;2.60;;
7661;SDS011;30314;48.184;11.510;2022-09-12T08:01:55;6.27;;;3.87;;
7661;SDS011;30314;48.184;11.510;2022-09-12T08:04:23;4.40;;;2.80;;
7661;SDS011;30314;48.184;11.510;2022-09-12T08:06:51;6.23;;;3.30;;
7661;SDS011;30314;48.184;11.510;2022-09-12T08:09:20;7.43;;;4.10;;
7661;SDS011;30314;48.184;11.510;2022-09-12T08:11:48;5.87;;;3.03;;
7661;SDS011;30314;48.184;11.510;2022-09-12T08:14:16;7.90;;;3.77;;
7661;SDS011;30314;48.184;11.510;2022-09-12T08:16:44;7.30;;;3.57;;
7661;SDS011;30314;48.184;11.510;2022-09-12T08:19:13;8.20;;;4.47;;
7661;SDS011;30314;48.184;11.510;2022-09-12T08:21:41;7.43;;;4.60;;
7661;SDS011;30314;48.184;11.510;2022-09-12T08:24:09;12.33;;;4.90;;
7661;SDS011;30314;48.184;11.510;2022-09-12T08:26:40;9.10;;;5.57;;
7661;SDS011;30314;48.184;11.510;2022-09-12T08:29:08;7.20;;;4.80;;
7661;SDS011;30314;48.184;11.510;2022-09-12T08:31:36;5.87;;;3.90;;
7661;SDS011;30314;48.184;11.510;2022-09-12T08:34:04;8.80;;;4.30;;
7661;SDS011;30314;48.184;11.510;2022-09-12T08:36:33;5.17;;;3.40;;
7661;SDS011;30314;48.184;11.510;2022-09-12T08:39:02;4.10;;;3.27;;
7661;SDS011;30314;48.184;11.510;2022-09-12T08:41:32;5.13;;;2.80;;
7661;SDS011;30314;48.184;11.510;2022-09-12T08:44:09;7.30;;;3.97;;
7661;SDS011;30314;48.184;11.510;2022-09-12T08:46:48;4.70;;;2.50;;
7661;SDS011;30314;48.184;11.510;2022-09-12T08:49:29;5.17;;;2.37;;
7661;SDS011;30314;48.184;11.510;2022-09-12T08:52:02;2.90;;;2.10;;
7661;SDS011;30314;48.184;11.510;2022-09-12T08:54:37;2.80;;;1.80;;
7661;SDS011;30314;48.184;11.510;2022-09-12T08:57:07;4.73;;;2.67;;
7661;SDS011;30314;48.184;11.510;2022-09-12T08:59:39;4.37;;;2.10;;
7661;SDS011;30314;48.184;11.510;2022-09-12T09:02:16;4.93;;;2.67;;
7661;SDS011;30314;48.184;11.510;2022-09-12T09:05:11;3.00;;;2.13;;
7661;SDS011;30314;48.184;11.510;2022-09-12T09:07:51;3.27;;;2.13;;
7661;SDS011;30314;48.184;11.510;2022-09-12T09:10:39;3.20;;;2.43;;
7661;SDS011;30314;48.184;11.510;2022-09-12T09:13:19;3.63;;;2.40;;
7661;SDS011;30314;48.184;11.510;2022-09-12T09:16:14;7.73;;;2.00;;
7661;SDS011;30314;48.184;11.510;2022-09-12T09:18:50;3.70;;;2.13;;
7661;SDS011;30314;48.184;11.510;2022-09-12T09:21:22;3.10;;;2.23;;
7661;SDS011;30314;48.184;11.510;2022-09-12T09:23:54;6.53;;;1.73;;
7661;SDS011;30314;48.184;11.510;2022-09-12T09:26:28;3.20;;;1.97;;
7661;SDS011;30314;48.184;11.510;2022-09-12T09:29:01;12.57;;;1.93;;
7661;SDS011;30314;48.184;11.510;2022-09-12T09:31:36;2.97;;;1.90;;
7661;SDS011;30314;48.184;11.510;2022-09-12T09:34:08;2.13;;;1.70;;
7661;SDS011;30314;48.184;11.510;2022-09-12T09:36:44;1.90;;;1.43;;
7661;SDS011;30314;48.184;11.510;2022-09-12T09:39:19;2.47;;;1.70;;
7661;SDS011;30314;48.184;11.510;2022-09-12T09:41:56;3.80;;;1.90;;
7661;SDS011;30314;48.184;11.510;2022-09-12T09:44:34;3.00;;;1.80;;
7661;SDS011;30314;48.184;11.510;2022-09-12T09:47:04;2.93;;;1.43;;
7661;SDS011;30314;48.184;11.510;2022-09-12T09:49:33;2.30;;;1.73;;
7661;SDS011;30314;48.184;11.510;2022-09-12T09:52:01;3.60;;;2.00;;
7661;SDS011;30314;48.184;11.510;2022-09-12T09:54:33;3.63;;;1.90;;
7661;SDS011;30314;48.184;11.510;2022-09-12T09:57:03;2.77;;;1.87;;
7661;SDS011;30314;48.184;11.510;2022-09-12T09:59:31;3.63;;;1.53;;
7661;SDS011;30314;48.184;11.510;2022-09-12T10:02:02;2.87;;;1.70;;
7661;SDS011;30314;48.184;11.510;2022-09-12T10:04:56;1.60;;;1.47;;
7661;SDS011;30314;48.184;11.510;2022-09-12T10:07:25;2.57;;;2.00;;
7661;SDS011;30314;48.184;11.510;2022-09-12T10:10:04;2.30;;;1.87;;
7661;SDS011;30314;48.184;11.510;2022-09-12T10:12:40;4.43;;;2.00;;
7661;SDS011;30314;48.184;11.510;2022-09-12T10:15:15;4.43;;;1.90;;
7661;SDS011;30314;48.184;11.510;2022-09-12T10:17:46;3.13;;;2.00;;
7661;SDS011;30314;48.184;11.510;2022-09-12T10:20:29;5.50;;;1.70;;
7661;SDS011;30314;48.184;11.510;2022-09-12T10:22:59;2.70;;;1.17;;
7661;SDS011;30314;48.184;11.510;2022-09-12T10:25:28;2.10;;;1.63;;
7661;SDS011;30314;48.184;11.510;2022-09-12T10:27:56;5.67;;;1.80;;
7661;SDS011;30314;48.184;11.510;2022-09-12T10:30:26;3.30;;;1.70;;
7661;SDS011;30314;48.184;11.510;2022-09-12T10:32:56;2.30;;;2.00;;
7661;SDS011;30314;48.184;11.510;2022-09-12T10:35:27;3.47;;;1.87;;
7661;SDS011;30314;48.184;11.510;2022-09-12T10:37:59;2.03;;;1.83;;
7661;SDS011;30314;48.184;11.510;2022-09-12T10:40:30;3.40;;;1.73;;
7661;SDS011;30314;48.184;11.510;2022-09-12T10:43:02;3.50;;;1.77;;
7661;SDS011;30314;48.184;11.510;2022-09-12T10:45:45;2.10;;;1.80;;
7661;SDS011;30314;48.184;11.510;2022-09-12T10:48:21;2.27;;;1.23;;
7661;SDS011;30314;48.184;11.510;2022-09-12T10:50:53;2.70;;;2.20;;
7661;SDS011;30314;48.184;11.510;2022-09-12T10:53:22;3.27;;;2.00;;
7661;SDS011;30314;48.184;11.510;2022-09-12T10:56:00;7.83;;;1.80;;
7661;SDS011;30314;48.184;11.510;2022-09-12T10:58:38;2.47;;;1.40;;
7661;SDS011;30314;48.184;11.510;2022-09-12T11:01:33;4.60;;;2.03;;
7661;SDS011;30314;48.184;11.510;2022-09-12T11:04:15;1.87;;;1.40;;
7661;SDS011;30314;48.184;11.510;2022-09-12T11:06:51;2.27;;;1.70;;
7661;SDS011;30314;48.184;11.510;2022-09-12T11:09:41;2.73;;;1.80;;
7661;SDS011;30314;48.184;11.510;2022-09-12T11:12:17;3.63;;;1.97;;
7661;SDS011;30314;48.184;11.510;2022-09-12T11:14:54;2.60;;;1.60;;
7661;SDS011;30314;48.184;11.510;2022-09-12T11:17:31;4.20;;;2.30;;
7661;SDS011;30314;48.184;11.510;2022-09-12T11:20:12;2.70;;;1.87;;
7661;SDS011;30314;48.184;11.510;2022-09-12T11:23:08;2.47;;;1.87;;
7661;SDS011;30314;48.184;11.510;2022-09-12T11:25:54;2.20;;;1.60;;
7661;SDS011;30314;48.184;11.510;2022-09-12T11:28:30;2.40;;;1.73;;
7661;SDS011;30314;48.184;11.510;2022-09-12T11:31:07;2.13;;;1.93;;
7661;SDS011;30314;48.184;11.510;2022-09-12T11:33:45;3.67;;;1.67;;
7661;SDS011;30314;48.184;11.510;2022-09-12T11:36:26;3.83;;;1.77;;
7661;SDS011;30314;48.184;11.510;2022-09-12T11:39:04;1.80;;;1.57;;
7661;SDS011;30314;48.184;11.510;2022-09-12T11:41:40;2.60;;;1.60;;
7661;SDS011;30314;48.184;11.510;2022-09-12T11:44:11;1.60;;;1.50;;
7661;SDS011;30314;48.184;11.510;2022-09-12T11:46:45;3.27;;;1.60;;
7661;SDS011;30314;48.184;11.510;2022-09-12T11:49:18;2.93;;;2.00;;
7661;SDS011;30314;48.184;11.510;2022-09-12T11:51:52;3.40;;;1.53;;
7661;SDS011;30314;48.184;11.510;2022-09-12T11:54:27;1.73;;;1.30;;
7661;SDS011;30314;48.184;11.510;2022-09-12T11:57:00;2.23;;;1.40;;
7661;SDS011;30314;48.184;11.510;2022-09-12T11:59:39;2.57;;;1.80;;
7661;SDS011;30314;48.184;11.510;2022-09-12T12:02:13;2.17;;;1.37;;
7661;SDS011;30314;48.184;11.510;2022-09-12T12:04:54;6.10;;;1.70;;
7661;SDS011;30314;48.184;11.510;2022-09-12T12:07:30;2.03;;;1.63;;
7661;SDS011;30314;48.184;11.510;2022-09-12T12:10:22;4.37;;;1.60;;
7661;SDS011;30314;48.184;11.510;2022-09-12T12:12:53;2.60;;;1.63;;
7661;SDS011;30314;48.184;11.510;2022-09-12T12:15:22;1.70;;;1.57;;
7661;SDS011;30314;48.184;11.510;2022-09-12T12:18:05;2.07;;;1.50;;
7661;SDS011;30314;48.184;11.510;2022-09-12T12:20:34;2.70;;;2.03;;
7661;SDS011;30314;48.184;11.510;2022-09-12T12:23:02;1.77;;;1.67;;
7661;SDS011;30314;48.184;11.510;2022-09-12T12:25:49;2.70;;;1.80;;
7661;SDS011;30314;48.184;11.510;2022-09-12T12:31:24;6.03;;;1.90;;
7661;SDS011;30314;48.184;11.510;2022-09-12T12:36:54;2.20;;;1.10;;
7661;SDS011;30314;48.184;11.510;2022-09-12T12:46:06;1.87;;;1.40;;
7661;SDS011;30314;48.184;11.510;2022-09-12T12:48:53;2.80;;;2.00;;
7661;SDS011;30314;48.184;11.510;2022-09-12T12:51:37;3.33;;;1.83;;
7661;SDS011;30314;48.184;11.510;2022-09-12T12:57:26;3.80;;;1.73;;
7661;SDS011;30314;48.184;11.510;2022-09-12T12:59:59;1.90;;;1.70;;
7661;SDS011;30314;48.184;11.510;2022-09-12T13:02:30;2.27;;;1.73;;
7661;SDS011;30314;48.184;11.510;2022-09-12T13:05:02;2.13;;;1.40;;
7661;SDS011;30314;48.184;11.510;2022-09-12T13:07:33;2.33;;;1.20;;
7661;SDS011;30314;48.184;11.510;2022-09-12T13:10:05;7.40;;;1.43;;
7661;SDS011;30314;48.184;11.510;2022-09-12T13:12:34;1.90;;;1.60;;
7661;SDS011;30314;48.184;11.510;2022-09-12T13:18:12;5.53;;;1.50;;
7661;SDS011;30314;48.184;11.510;2022-09-12T13:20:44;2.17;;;1.47;;
7661;SDS011;30314;48.184;11.510;2022-09-12T13:23:20;3.00;;;1.37;;
7661;SDS011;30314;48.184;11.510;2022-09-12T13:25:52;2.10;;;1.30;;
7661;SDS011;30314;48.184;11.510;2022-09-12T13:28:21;1.90;;;1.60;;
7661;SDS011;30314;48.184;11.510;2022-09-12T13:30:53;2.17;;;1.40;;
7661;SDS011;30314;48.184;11.510;2022-09-12T13:33:29;1.70;;;1.13;;
7661;SDS011;30314;48.184;11.510;2022-09-12T13:36:10;3.00;;;1.40;;
7661;SDS011;30314;48.184;11.510;2022-09-12T13:39:04;1.93;;;1.30;;
7661;SDS011;30314;48.184;11.510;2022-09-12T13:44:57;2.47;;;1.70;;
7661;SDS011;30314;48.184;11.510;2022-09-12T13:47:29;1.10;;;1.00;;
7661;SDS011;30314;48.184;11.510;2022-09-12T13:50:00;3.43;;;1.77;;
7661;SDS011;30314;48.184;11.510;2022-09-12T13:52:30;4.50;;;1.33;;
7661;SDS011;30314;48.184;11.510;2022-09-12T13:55:01;3.23;;;1.80;;
7661;SDS011;30314;48.184;11.510;2022-09-12T13:57:33;2.60;;;1.37;;
7661;SDS011;30314;48.184;11.510;2022-09-12T14:00:04;1.87;;;1.30;;
7661;SDS011;30314;48.184;11.510;2022-09-12T14:02:34;1.90;;;1.07;;
7661;SDS011;30314;48.184;11.510;2022-09-12T14:05:12;1.80;;;1.00;;
7661;SDS011;30314;48.184;11.510;2022-09-12T14:07:50;2.10;;;1.10;;
7661;SDS011;30314;48.184;11.510;2022-09-12T14:10:25;1.50;;;1.13;;
7661;SDS011;30314;48.184;11.510;2022-09-12T14:12:56;2.03;;;1.63;;
7661;SDS011;30314;48.184;11.510;2022-09-12T14:15:26;2.00;;;1.20;;
7661;SDS011;30314;48.184;11.510;2022-09-12T14:17:56;2.03;;;1.20;;
7661;SDS011;30314;48.184;11.510;2022-09-12T14:20:28;1.40;;;1.20;;
7661;SDS011;30314;48.184;11.510;2022-09-12T14:22:58;1.90;;;1.50;;
7661;SDS011;30314;48.184;11.510;2022-09-12T14:25:29;1.70;;;1.27;;
7661;SDS011;30314;48.184;11.510;2022-09-12T14:28:02;1.30;;;1.10;;
7661;SDS011;30314;48.184;11.510;2022-09-12T14:30:32;3.00;;;1.60;;
7661;SDS011;30314;48.184;11.510;2022-09-12T14:33:03;1.90;;;1.53;;
7661;SDS011;30314;48.184;11.510;2022-09-12T14:35:46;1.73;;;1.23;;
7661;SDS011;30314;48.184;11.510;2022-09-12T14:38:23;1.97;;;1.13;;
7661;SDS011;30314;48.184;11.510;2022-09-12T14:40:57;2.27;;;1.40;;
7661;SDS011;30314;48.184;11.510;2022-09-12T14:43:27;2.57;;;1.23;;
7661;SDS011;30314;48.184;11.510;2022-09-12T14:45:57;1.93;;;1.20;;
7661;SDS011;30314;48.184;11.510;2022-09-12T14:48:27;1.40;;;0.90;;
7661;SDS011;30314;48.184;11.510;2022-09-12T14:50:59;2.20;;;1.23;;
7661;SDS011;30314;48.184;11.510;2022-09-12T14:53:31;2.10;;;1.40;;
7661;SDS011;30314;48.184;11.510;2022-09-12T14:56:07;2.10;;;1.20;;
7661;SDS011;30314;48.184;11.510;2022-09-12T14:58:36;1.60;;;0.90;;
7661;SDS011;30314;48.184;11.510;2022-09-12T15:03:53;2.53;;;2.03;;
7661;SDS011;30314;48.184;11.510;2022-09-12T15:06:26;1.90;;;1.30;;
7661;SDS011;30314;48.184;11.510;2022-09-12T15:08:56;1.67;;;1.03;;
7661;SDS011;30314;48.184;11.510;2022-09-12T15:11:25;3.43;;;1.30;;
7661;SDS011;30314;48.184;11.510;2022-09-12T15:13:53;2.00;;;0.87;;
7661;SDS011;30314;48.184;11.510;2022-09-12T15:16:21;1.43;;;1.10;;
7661;SDS011;30314;48.184;11.510;2022-09-12T15:18:49;1.93;;;1.17;;
7661;SDS011;30314;48.184;11.510;2022-09-12T15:21:17;1.60;;;1.07;;
7661;SDS011;30314;48.184;11.510;2022-09-12T15:23:48;1.37;;;1.00;;
7661;SDS011;30314;48.184;11.510;2022-09-12T15:26:17;3.53;;;1.23;;
7661;SDS011;30314;48.184;11.510;2022-09-12T15:28:47;1.80;;;1.20;;
7661;SDS011;30314;48.184;11.510;2022-09-12T15:31:17;2.43;;;1.10;;
7661;SDS011;30314;48.184;11.510;2022-09-12T15:33:49;1.83;;;1.13;;
7661;SDS011;30314;48.184;11.510;2022-09-12T15:36:18;2.17;;;1.20;;
7661;SDS011;30314;48.184;11.510;2022-09-12T15:38:48;1.60;;;0.80;;
7661;SDS011;30314;48.184;11.510;2022-09-12T15:41:18;1.40;;;1.00;;
7661;SDS011;30314;48.184;11.510;2022-09-12T15:43:48;1.83;;;1.10;;
7661;SDS011;30314;48.184;11.510;2022-09-12T15:46:17;1.70;;;1.10;;
7661;SDS011;30314;48.184;11.510;2022-09-12T15:48:45;3.07;;;0.90;;
7661;SDS011;30314;48.184;11.510;2022-09-12T15:51:14;5.77;;;1.40;;